Time;durP1;ratioP1;P1;durP2;ratioP2;P2;SDS_P1;SDS_P2;PMS_P1;PMS_P2;Temp;Humidity;BMP_temperature;BMP_pressure;BME280_temperature;BME280_humidity;BME280_pressure;Samples;Min_cycle;Max_cycle;Signal;HPM_P1;HPM_P2
2022/06/30 00:00:42;;;;;;;;;;;27.40;99.90;;;;;;5155519;27;19915;-67
2022/06/30 00:03:08;;;;;;;;;;;27.30;99.90;;;;;;5155423;27;19989;-67
2022/06/30 00:05:34;;;;;;;;;;;27.20;99.90;;;;;;5155180;27;19903;-66
2022/06/30 00:08:00;;;;;;;;;;;27.10;99.90;;;;;;5155606;27;19914;-66
2022/06/30 00:10:26;;;;;;;;;;;27.10;99.90;;;;;;5155319;27;19945;-66
2022/06/30 00:12:52;;;;;;;;;;;27.00;99.90;;;;;;5153697;27;19911;-66
2022/06/30 00:15:18;;;;;;;;;;;27.00;99.90;;;;;;5155571;27;19903;-66
2022/06/30 00:17:43;;;;;;;;;;;27.00;99.90;;;;;;5155170;27;19903;-68
2022/06/30 00:20:09;;;;;;;;;;;27.00;99.90;;;;;;5155318;27;19907;-67
2022/06/30 00:22:35;;;;;;;;;;;26.90;99.90;;;;;;5155420;27;19911;-67
2022/06/30 00:25:01;;;;;;;;;;;26.90;99.90;;;;;;5155250;27;19903;-66
2022/06/30 00:27:27;;;;;;;;;;;26.80;99.90;;;;;;5155334;27;20361;-67
2022/06/30 00:29:53;;;;;;;;;;;26.80;99.90;;;;;;5155075;27;20425;-67
2022/06/30 00:32:18;;;;;;;;;;;26.80;99.90;;;;;;5154857;27;19975;-67
2022/06/30 00:34:44;;;;;;;;;;;26.80;99.90;;;;;;5155307;27;20005;-67
2022/06/30 00:37:10;;;;;;;;;;;26.80;99.90;;;;;;5155107;27;19976;-66
2022/06/30 00:39:36;;;;;;;;;;;26.80;99.90;;;;;;5153428;27;20006;-66
2022/06/30 00:42:03;;;;;;;;;;;26.80;99.90;;;;;;5154818;27;20360;-67
2022/06/30 00:44:29;;;;;;;;;;;26.70;99.90;;;;;;5154959;27;20243;-67
2022/06/30 00:46:56;;;;;;;;;;;26.70;99.90;;;;;;5154588;27;19910;-66
2022/06/30 00:49:22;;;;;;;;;;;26.60;99.90;;;;;;5154633;27;19903;-66
2022/06/30 00:51:48;;;;;;;;;;;26.60;99.90;;;;;;5154363;27;19991;-66
2022/06/30 00:54:13;;;;;;;;;;;26.60;99.90;;;;;;5154593;27;19907;-66
2022/06/30 00:56:46;;;;;;;;;;;26.50;99.90;;;;;;5154344;27;19952;-66
2022/06/30 00:59:13;;;;;;;;;;;26.50;99.90;;;;;;5154428;27;19985;-66
2022/06/30 01:01:41;;;;;;;;;;;26.50;99.90;;;;;;5154396;27;20342;-66
2022/06/30 01:04:07;;;;;;;;;;;26.50;99.90;;;;;;5154308;27;19951;-66
2022/06/30 01:06:34;;;;;;;;;;;26.50;99.90;;;;;;5153934;27;19915;-66
2022/06/30 01:08:59;;;;;;;;;;;26.60;99.90;;;;;;5153455;27;19946;-66
2022/06/30 01:14:10;;;;;;;;;;;26.70;99.90;;;;;;5154526;27;20011;-66
2022/06/30 01:16:41;;;;;;;;;;;26.80;99.90;;;;;;5152429;27;19907;-66
2022/06/30 01:19:07;;;;;;;;;;;26.80;99.90;;;;;;5154222;27;20022;-66
2022/06/30 01:21:34;;;;;;;;;;;26.80;99.90;;;;;;5153856;27;19932;-66
2022/06/30 01:23:59;;;;;;;;;;;26.70;99.90;;;;;;5153969;27;20419;-68
2022/06/30 01:26:27;;;;;;;;;;;26.70;99.90;;;;;;5153714;27;20011;-66
2022/06/30 01:28:53;;;;;;;;;;;26.60;99.90;;;;;;5152173;27;20354;-67
2022/06/30 01:31:18;;;;;;;;;;;26.60;99.90;;;;;;5153665;27;19903;-67
2022/06/30 01:33:45;;;;;;;;;;;26.60;99.90;;;;;;5153955;27;19911;-67
2022/06/30 01:36:11;;;;;;;;;;;26.60;99.90;;;;;;5152174;27;19903;-66
2022/06/30 01:38:37;;;;;;;;;;;26.60;99.90;;;;;;5153846;27;19904;-66
2022/06/30 01:41:03;;;;;;;;;;;26.50;99.90;;;;;;5153477;27;19947;-66
2022/06/30 01:43:29;;;;;;;;;;;26.50;99.90;;;;;;5153764;27;19911;-66
2022/06/30 01:45:55;;;;;;;;;;;26.50;99.90;;;;;;5153355;27;19903;-66
2022/06/30 01:48:21;;;;;;;;;;;26.60;99.90;;;;;;5153659;27;20366;-66
2022/06/30 01:50:46;;;;;;;;;;;26.70;99.90;;;;;;5153324;27;19975;-67
2022/06/30 01:53:12;;;;;;;;;;;26.70;99.90;;;;;;5153221;27;20269;-66
2022/06/30 01:55:38;;;;;;;;;;;26.70;99.90;;;;;;5153453;27;19947;-68
2022/06/30 01:58:04;;;;;;;;;;;26.70;99.90;;;;;;5153293;27;19907;-66
2022/06/30 02:00:31;;;;;;;;;;;26.80;99.90;;;;;;5151702;27;19937;-67
2022/06/30 02:02:57;;;;;;;;;;;26.70;99.90;;;;;;5152134;27;19903;-66
2022/06/30 02:05:23;;;;;;;;;;;26.60;99.90;;;;;;5152416;27;19951;-66
2022/06/30 02:07:49;;;;;;;;;;;26.50;99.90;;;;;;5152583;27;19950;-66
2022/06/30 02:10:16;;;;;;;;;;;26.40;99.90;;;;;;5153105;27;20204;-65
2022/06/30 02:12:45;;;;;;;;;;;26.20;99.90;;;;;;5152905;27;19978;-66
2022/06/30 02:15:13;;;;;;;;;;;26.10;99.90;;;;;;5153148;27;19906;-66
2022/06/30 02:17:39;;;;;;;;;;;26.10;99.90;;;;;;5153015;27;19907;-66
2022/06/30 02:20:07;;;;;;;;;;;26.20;99.90;;;;;;5152804;27;19928;-66
2022/06/30 02:22:35;;;;;;;;;;;26.20;99.90;;;;;;5152811;27;19910;-67
2022/06/30 02:25:01;;;;;;;;;;;26.20;99.90;;;;;;5152813;27;19918;-66
2022/06/30 02:27:26;;;;;;;;;;;26.20;99.90;;;;;;5152722;27;19903;-66
2022/06/30 02:29:52;;;;;;;;;;;26.20;99.90;;;;;;5152727;27;20009;-66
2022/06/30 02:32:19;;;;;;;;;;;26.20;99.90;;;;;;5152703;27;20005;-67
2022/06/30 02:34:45;;;;;;;;;;;26.10;99.90;;;;;;5152606;27;19911;-66
2022/06/30 02:37:10;;;;;;;;;;;26.10;99.90;;;;;;5152707;27;20349;-66
2022/06/30 02:39:36;;;;;;;;;;;26.20;99.90;;;;;;5152704;27;19980;-67
2022/06/30 02:42:02;;;;;;;;;;;26.20;99.90;;;;;;5152488;27;19963;-66
2022/06/30 02:44:29;;;;;;;;;;;26.20;99.90;;;;;;5152852;27;19903;-67
2022/06/30 02:46:55;;;;;;;;;;;26.10;99.90;;;;;;5152760;27;19955;-66
2022/06/30 02:49:21;;;;;;;;;;;26.10;99.90;;;;;;5152633;27;19944;-66
2022/06/30 02:51:48;;;;;;;;;;;26.30;99.90;;;;;;5152462;27;19966;-66
2022/06/30 02:54:14;;;;;;;;;;;26.40;99.90;;;;;;5153015;27;20244;-66
2022/06/30 02:56:40;;;;;;;;;;;26.40;99.90;;;;;;5153080;27;19994;-67
2022/06/30 02:59:06;;;;;;;;;;;26.30;99.90;;;;;;5152717;27;19994;-66
2022/06/30 03:01:32;;;;;;;;;;;26.30;99.90;;;;;;5152669;27;19903;-67
2022/06/30 03:04:01;;;;;;;;;;;26.20;99.90;;;;;;5153276;27;19907;-67
2022/06/30 03:06:28;;;;;;;;;;;26.30;99.90;;;;;;5152829;27;19922;-66
2022/06/30 03:08:55;;;;;;;;;;;26.30;99.90;;;;;;5152945;27;20388;-66
2022/06/30 03:11:21;;;;;;;;;;;26.30;99.90;;;;;;5152922;27;19914;-66
2022/06/30 03:13:47;;;;;;;;;;;26.30;99.90;;;;;;5153127;27;19911;-67
2022/06/30 03:16:13;;;;;;;;;;;26.30;99.90;;;;;;5152903;27;19903;-66
2022/06/30 03:18:39;;;;;;;;;;;26.30;99.90;;;;;;5152847;27;19911;-66
2022/06/30 03:21:05;;;;;;;;;;;26.40;99.90;;;;;;5153188;27;19989;-66
2022/06/30 03:23:31;;;;;;;;;;;26.40;99.90;;;;;;5153315;27;19942;-66
2022/06/30 03:25:57;;;;;;;;;;;26.40;99.90;;;;;;5152465;27;20428;-66
2022/06/30 03:28:23;;;;;;;;;;;26.40;99.90;;;;;;5152036;27;19953;-66
2022/06/30 03:30:49;;;;;;;;;;;26.30;99.90;;;;;;5152355;27;19922;-66
2022/06/30 03:33:15;;;;;;;;;;;26.40;99.90;;;;;;5154581;27;20324;-66
2022/06/30 03:35:41;;;;;;;;;;;26.30;99.90;;;;;;5156688;27;19943;-65
2022/06/30 03:38:07;;;;;;;;;;;26.20;99.90;;;;;;5156748;27;19903;-68
2022/06/30 03:40:33;;;;;;;;;;;26.20;99.90;;;;;;5157084;27;19903;-66
2022/06/30 03:42:59;;;;;;;;;;;26.20;99.90;;;;;;5156558;27;19903;-69
2022/06/30 03:45:25;;;;;;;;;;;26.20;99.90;;;;;;5156837;27;19903;-67
2022/06/30 03:47:51;;;;;;;;;;;26.20;99.90;;;;;;5156434;27;19903;-66
2022/06/30 03:50:17;;;;;;;;;;;26.20;99.90;;;;;;5156857;27;19903;-67
2022/06/30 03:52:43;;;;;;;;;;;26.20;99.90;;;;;;5156385;27;20007;-66
2022/06/30 03:55:09;;;;;;;;;;;26.30;99.90;;;;;;5156750;27;19917;-66
2022/06/30 03:57:35;;;;;;;;;;;26.30;99.90;;;;;;5156377;27;19994;-66
2022/06/30 04:00:01;;;;;;;;;;;26.20;99.90;;;;;;5155090;27;19990;-66
2022/06/30 04:02:27;;;;;;;;;;;26.20;99.90;;;;;;5156605;27;19946;-67
2022/06/30 04:04:53;;;;;;;;;;;26.10;99.90;;;;;;5157217;27;19938;-66
2022/06/30 04:07:18;;;;;;;;;;;26.10;99.90;;;;;;5156460;27;20410;-66
2022/06/30 04:09:44;;;;;;;;;;;26.10;99.90;;;;;;5156769;27;19971;-66
2022/06/30 04:12:10;;;;;;;;;;;26.10;99.90;;;;;;5156375;27;19911;-66
2022/06/30 04:14:36;;;;;;;;;;;26.10;99.90;;;;;;5156342;27;19915;-67
2022/06/30 04:17:02;;;;;;;;;;;26.00;99.90;;;;;;5156910;27;19903;-66
2022/06/30 04:19:28;;;;;;;;;;;26.00;99.90;;;;;;5157311;27;20027;-66
2022/06/30 04:21:54;;;;;;;;;;;26.00;99.90;;;;;;5156926;27;19940;-66
2022/06/30 04:24:20;;;;;;;;;;;26.10;99.90;;;;;;5156843;27;20359;-66
2022/06/30 04:26:45;;;;;;;;;;;26.20;99.90;;;;;;5156974;27;19995;-66
2022/06/30 04:29:11;;;;;;;;;;;26.20;99.90;;;;;;5156866;27;20299;-67
2022/06/30 04:34:21;;;;;;;;;;;26.30;99.90;;;;;;5156940;27;19934;-66
2022/06/30 04:36:47;;;;;;;;;;;26.40;99.90;;;;;;5156996;27;20343;-67
2022/06/30 04:39:13;;;;;;;;;;;26.40;99.90;;;;;;5156904;27;19911;-66
2022/06/30 04:41:39;;;;;;;;;;;26.40;99.90;;;;;;5157140;27;19903;-66
2022/06/30 04:44:05;;;;;;;;;;;26.40;99.90;;;;;;5155644;27;20403;-66
2022/06/30 04:46:31;;;;;;;;;;;26.50;99.90;;;;;;5156675;27;19946;-66
2022/06/30 04:48:57;;;;;;;;;;;26.50;99.90;;;;;;5156673;27;19953;-67
2022/06/30 04:51:22;;;;;;;;;;;26.60;99.90;;;;;;5157007;27;19911;-69
2022/06/30 04:53:48;;;;;;;;;;;26.70;99.90;;;;;;5156464;27;19924;-67
2022/06/30 04:56:15;;;;;;;;;;;26.80;99.90;;;;;;5156334;27;20323;-66
2022/06/30 04:58:41;;;;;;;;;;;27.00;99.90;;;;;;5156068;27;19945;-66
2022/06/30 05:01:07;;;;;;;;;;;27.10;99.90;;;;;;5156594;27;19926;-66
2022/06/30 05:03:33;;;;;;;;;;;27.10;99.90;;;;;;5156209;27;19903;-66
2022/06/30 05:05:59;;;;;;;;;;;27.50;99.90;;;;;;5156203;27;19955;-66
2022/06/30 05:08:25;;;;;;;;;;;28.00;99.90;;;;;;5156327;27;19907;-66
2022/06/30 05:10:51;;;;;;;;;;;28.20;99.90;;;;;;5156248;27;19907;-66
2022/06/30 05:13:17;;;;;;;;;;;28.60;99.90;;;;;;5155592;27;19936;-67
2022/06/30 05:15:46;;;;;;;;;;;29.00;99.20;;;;;;5155802;27;19909;-67
2022/06/30 05:18:12;;;;;;;;;;;29.70;97.40;;;;;;5155428;27;19903;-67
2022/06/30 05:20:38;;;;;;;;;;;29.90;96.60;;;;;;5155683;27;20004;-67
2022/06/30 05:23:04;;;;;;;;;;;30.30;95.40;;;;;;5155519;27;20354;-67
2022/06/30 05:28:14;;;;;;;;;;;30.40;95.50;;;;;;5155836;27;19948;-67
2022/06/30 05:30:41;;;;;;;;;;;30.70;94.90;;;;;;5156042;27;20334;-68
2022/06/30 05:33:07;;;;;;;;;;;31.40;93.90;;;;;;5155052;27;20013;-67
2022/06/30 05:35:33;;;;;;;;;;;32.20;92.40;;;;;;5153515;27;19917;-66
2022/06/30 05:38:00;;;;;;;;;;;33.60;89.90;;;;;;5155476;27;20265;-67
2022/06/30 05:40:26;;;;;;;;;;;34.60;86.10;;;;;;5155152;27;19903;-67
2022/06/30 05:42:51;;;;;;;;;;;35.50;82.60;;;;;;5153557;27;20271;-67
2022/06/30 05:45:17;;;;;;;;;;;35.90;81.00;;;;;;5155390;27;19903;-67
2022/06/30 05:47:44;;;;;;;;;;;35.30;80.60;;;;;;5154920;27;20253;-65
2022/06/30 05:50:10;;;;;;;;;;;33.60;85.60;;;;;;5155046;27;19960;-66
2022/06/30 05:52:36;;;;;;;;;;;32.30;90.30;;;;;;5154545;27;20343;-66
2022/06/30 05:55:02;;;;;;;;;;;32.00;92.10;;;;;;5154259;27;19945;-66
2022/06/30 05:57:27;;;;;;;;;;;32.30;92.00;;;;;;5154502;27;19903;-66
2022/06/30 05:59:53;;;;;;;;;;;33.40;91.00;;;;;;5154534;27;19938;-66
2022/06/30 06:02:19;;;;;;;;;;;35.00;89.80;;;;;;5154492;27;19903;-67
2022/06/30 06:04:45;;;;;;;;;;;36.70;86.80;;;;;;5154448;27;20002;-66
2022/06/30 06:07:10;;;;;;;;;;;37.90;83.60;;;;;;5154240;27;19948;-67
2022/06/30 06:09:36;;;;;;;;;;;39.00;80.50;;;;;;5154695;27;19950;-67
2022/06/30 06:12:02;;;;;;;;;;;39.90;79.30;;;;;;5154417;27;19903;-68
2022/06/30 06:14:28;;;;;;;;;;;40.40;76.50;;;;;;5154740;27;19907;-66
2022/06/30 06:16:54;;;;;;;;;;;40.20;77.80;;;;;;5154766;27;19903;-67
2022/06/30 06:19:21;;;;;;;;;;;40.60;76.20;;;;;;5154919;27;19994;-66
2022/06/30 06:21:48;;;;;;;;;;;40.40;76.40;;;;;;5154977;27;19903;-66
2022/06/30 06:24:15;;;;;;;;;;;40.50;76.40;;;;;;5154688;27;20335;-66
2022/06/30 06:26:41;;;;;;;;;;;40.80;75.40;;;;;;5154232;27;19975;-67
2022/06/30 06:29:06;;;;;;;;;;;41.80;74.10;;;;;;5154583;27;19989;-67
2022/06/30 06:31:34;;;;;;;;;;;42.20;71.30;;;;;;5155005;27;20243;-67
2022/06/30 06:34:00;;;;;;;;;;;43.00;70.60;;;;;;5154010;27;19946;-67
2022/06/30 06:36:26;;;;;;;;;;;43.20;69.20;;;;;;5154156;27;19907;-67
2022/06/30 06:38:52;;;;;;;;;;;42.80;69.70;;;;;;5154317;27;20400;-66
2022/06/30 06:41:20;;;;;;;;;;;42.70;69.30;;;;;;5154186;27;19903;-67
2022/06/30 06:43:50;;;;;;;;;;;42.40;69.80;;;;;;5154056;27;20404;-67
2022/06/30 06:46:16;;;;;;;;;;;42.10;70.60;;;;;;5154089;27;19903;-66
2022/06/30 06:48:42;;;;;;;;;;;41.80;70.60;;;;;;5154309;27;20363;-66
2022/06/30 06:51:08;;;;;;;;;;;42.40;69.10;;;;;;5154603;27;19910;-67
2022/06/30 06:53:34;;;;;;;;;;;42.10;69.20;;;;;;5154409;27;19918;-67
2022/06/30 06:56:00;;;;;;;;;;;41.90;69.10;;;;;;5154170;27;19917;-66
2022/06/30 06:58:26;;;;;;;;;;;40.40;71.60;;;;;;5154044;27;19903;-66
2022/06/30 07:00:54;;;;;;;;;;;39.40;73.60;;;;;;5154323;27;19910;-66
2022/06/30 07:03:20;;;;;;;;;;;39.00;74.50;;;;;;5154414;27;19994;-67
2022/06/30 07:05:46;;;;;;;;;;;37.70;77.60;;;;;;5153615;27;19945;-66
2022/06/30 07:08:12;;;;;;;;;;;37.10;78.30;;;;;;5154637;27;19914;-66
2022/06/30 07:10:37;;;;;;;;;;;36.80;79.20;;;;;;5158164;27;20002;-67
2022/06/30 07:13:03;;;;;;;;;;;36.50;79.90;;;;;;5158189;27;20051;-67
2022/06/30 07:15:29;;;;;;;;;;;36.40;81.10;;;;;;5157948;27;19903;-65
2022/06/30 07:17:55;;;;;;;;;;;36.20;81.80;;;;;;5157846;27;19994;-66
2022/06/30 07:20:22;;;;;;;;;;;36.40;81.20;;;;;;5158257;27;19907;-65
2022/06/30 07:22:47;;;;;;;;;;;36.40;81.30;;;;;;5157783;27;20017;-66
2022/06/30 07:25:13;;;;;;;;;;;36.00;81.80;;;;;;5157990;27;19983;-66
2022/06/30 07:27:39;;;;;;;;;;;35.30;82.70;;;;;;5157607;27;19910;-66
2022/06/30 07:30:05;;;;;;;;;;;35.00;83.80;;;;;;5157786;27;19910;-66
2022/06/30 07:32:31;;;;;;;;;;;34.70;84.50;;;;;;5158148;27;20311;-66
2022/06/30 07:34:57;;;;;;;;;;;33.90;86.70;;;;;;5157596;27;20351;-66
2022/06/30 07:37:23;;;;;;;;;;;33.30;88.80;;;;;;5157694;27;19903;-65
2022/06/30 07:39:48;;;;;;;;;;;33.00;90.10;;;;;;5157621;27;20088;-66
2022/06/30 07:42:14;;;;;;;;;;;32.80;90.20;;;;;;5156491;27;19903;-67
2022/06/30 07:44:40;;;;;;;;;;;32.80;90.30;;;;;;5157712;27;20381;-67
2022/06/30 07:47:06;;;;;;;;;;;32.90;89.90;;;;;;5157420;27;19942;-66
2022/06/30 07:49:32;;;;;;;;;;;33.20;89.40;;;;;;5157509;27;19942;-65
2022/06/30 07:51:58;;;;;;;;;;;33.00;89.20;;;;;;5157491;27;20338;-66
2022/06/30 07:54:24;;;;;;;;;;;32.70;89.10;;;;;;5157072;27;19918;-66
2022/06/30 07:56:49;;;;;;;;;;;32.60;88.70;;;;;;5157200;27;19990;-66
2022/06/30 07:59:15;;;;;;;;;;;32.70;87.90;;;;;;5157000;27;19938;-66
2022/06/30 08:01:41;;;;;;;;;;;32.70;87.50;;;;;;5156547;27;19914;-66
2022/06/30 08:04:07;;;;;;;;;;;32.70;87.30;;;;;;5156239;27;19903;-66
2022/06/30 08:06:33;;;;;;;;;;;32.80;87.10;;;;;;5156386;27;19995;-66
2022/06/30 08:08:59;;;;;;;;;;;33.20;85.40;;;;;;5156779;27;19903;-66
2022/06/30 08:11:25;;;;;;;;;;;33.30;83.00;;;;;;5156609;27;19903;-68
2022/06/30 08:13:51;;;;;;;;;;;33.30;81.50;;;;;;5157248;27;20347;-67
2022/06/30 08:16:17;;;;;;;;;;;33.50;80.00;;;;;;5156351;27;19913;-66
2022/06/30 08:18:43;;;;;;;;;;;33.80;76.20;;;;;;5156992;27;20367;-66
2022/06/30 08:21:09;;;;;;;;;;;34.20;74.60;;;;;;5157234;27;19939;-67
2022/06/30 08:23:35;;;;;;;;;;;34.20;74.80;;;;;;5156496;27;19903;-66
2022/06/30 08:26:02;;;;;;;;;;;34.20;74.40;;;;;;5157125;27;19914;-66
2022/06/30 08:28:28;;;;;;;;;;;34.40;71.80;;;;;;5156193;27;20362;-66
2022/06/30 08:30:53;;;;;;;;;;;34.30;72.10;;;;;;5156255;27;19903;-66
2022/06/30 08:33:19;;;;;;;;;;;34.30;73.00;;;;;;5154337;27;19958;-68
2022/06/30 08:35:45;;;;;;;;;;;34.60;71.80;;;;;;5155935;27;19903;-67
2022/06/30 08:38:11;;;;;;;;;;;34.70;70.60;;;;;;5156139;27;20273;-67
2022/06/30 08:43:24;;;;;;;;;;;34.90;68.60;;;;;;5156299;27;19914;-66
2022/06/30 08:45:51;;;;;;;;;;;35.10;66.30;;;;;;5156240;27;19948;-66
2022/06/30 08:48:17;;;;;;;;;;;35.30;66.00;;;;;;5156017;27;19903;-66
2022/06/30 08:50:43;;;;;;;;;;;35.90;65.10;;;;;;5155302;27;19954;-65
2022/06/30 08:53:10;;;;;;;;;;;36.30;63.40;;;;;;5155573;27;19913;-66
2022/06/30 08:55:37;;;;;;;;;;;36.80;59.00;;;;;;5155307;27;20040;-66
2022/06/30 08:58:07;;;;;;;;;;;36.90;59.30;;;;;;5155781;27;20331;-66
2022/06/30 09:00:33;;;;;;;;;;;36.80;59.80;;;;;;5155323;27;19903;-67
2022/06/30 09:02:59;;;;;;;;;;;36.70;60.10;;;;;;5136555;27;19907;-66
2022/06/30 09:05:25;;;;;;;;;;;36.90;59.00;;;;;;5153667;27;19903;-66
2022/06/30 09:07:50;;;;;;;;;;;37.10;58.90;;;;;;5155654;27;19911;-67
2022/06/30 09:10:16;;;;;;;;;;;37.50;58.20;;;;;;5154993;27;20308;-67
2022/06/30 09:12:57;;;;;;;;;;;37.90;57.90;;;;;;5155409;27;20309;-66
2022/06/30 09:15:23;;;;;;;;;;;38.20;57.10;;;;;;5155209;27;19903;-66
2022/06/30 09:17:49;;;;;;;;;;;38.20;55.10;;;;;;5155415;27;19909;-66
2022/06/30 09:20:15;;;;;;;;;;;37.60;55.00;;;;;;5155313;27;20404;-68
2022/06/30 09:22:41;;;;;;;;;;;37.70;55.30;;;;;;5153650;27;19990;-67
2022/06/30 09:25:11;;;;;;;;;;;38.00;61.60;;;;;;5155123;27;20408;-67
2022/06/30 09:27:41;;;;;;;;;;;38.20;66.70;;;;;;5155171;27;19956;-67
2022/06/30 09:30:09;;;;;;;;;;;38.50;67.90;;;;;;5154359;27;19930;-69
2022/06/30 09:32:45;;;;;;;;;;;38.60;67.60;;;;;;5155294;27;19954;-68
2022/06/30 09:35:10;;;;;;;;;;;38.50;67.90;;;;;;5153493;27;19926;-67
2022/06/30 09:37:37;;;;;;;;;;;38.60;67.80;;;;;;5153485;27;20295;-67
2022/06/30 09:40:04;;;;;;;;;;;38.60;68.60;;;;;;5155175;27;19906;-67
2022/06/30 09:42:40;;;;;;;;;;;38.50;69.40;;;;;;5154591;27;19903;-67
2022/06/30 09:45:07;;;;;;;;;;;38.30;70.20;;;;;;5154579;27;19903;-67
2022/06/30 09:47:33;;;;;;;;;;;38.00;72.80;;;;;;5154380;27;20355;-67
2022/06/30 09:50:03;;;;;;;;;;;38.00;73.00;;;;;;5154340;27;19903;-67
2022/06/30 09:52:29;;;;;;;;;;;38.10;73.10;;;;;;5154733;27;19939;-68
2022/06/30 09:54:56;;;;;;;;;;;38.10;71.90;;;;;;5154182;27;19907;-66
2022/06/30 09:57:24;;;;;;;;;;;38.10;72.70;;;;;;5152842;27;19903;-67
2022/06/30 10:00:19;;;;;;;;;;;38.30;72.90;;;;;;5154231;27;19903;-67
2022/06/30 10:02:49;;;;;;;;;;;38.40;72.60;;;;;;5131384;27;19960;-67
2022/06/30 10:05:16;;;;;;;;;;;38.30;73.30;;;;;;5131721;27;19998;-67
2022/06/30 10:07:42;;;;;;;;;;;38.10;72.50;;;;;;5130431;27;20005;-67
2022/06/30 10:10:09;;;;;;;;;;;37.90;70.50;;;;;;5130595;28;19903;-67
2022/06/30 10:12:36;;;;;;;;;;;37.60;72.00;;;;;;5130431;28;19912;-67
2022/06/30 10:15:02;;;;;;;;;;;37.40;73.70;;;;;;5113199;28;19939;-67
2022/06/30 10:17:30;;;;;;;;;;;37.30;74.60;;;;;;5130358;28;19914;-67
2022/06/30 10:19:56;;;;;;;;;;;37.30;74.70;;;;;;5131086;28;20303;-67
2022/06/30 10:22:24;;;;;;;;;;;37.10;76.30;;;;;;5113091;28;19907;-68
2022/06/30 10:24:51;;;;;;;;;;;36.90;77.40;;;;;;5130820;28;19990;-67
2022/06/30 10:27:18;;;;;;;;;;;36.70;78.90;;;;;;5130604;28;20364;-68
2022/06/30 10:29:50;;;;;;;;;;;36.60;79.70;;;;;;5130382;28;20006;-67
2022/06/30 10:32:29;;;;;;;;;;;36.70;79.80;;;;;;5130359;28;19904;-67
2022/06/30 10:35:00;;;;;;;;;;;36.80;79.50;;;;;;5130862;28;19998;-68
2022/06/30 10:37:28;;;;;;;;;;;36.60;80.60;;;;;;5130331;28;19949;-67
2022/06/30 10:40:00;;;;;;;;;;;36.70;80.10;;;;;;5149043;27;20334;-67
2022/06/30 10:42:44;;;;;;;;;;;36.90;80.10;;;;;;5152093;27;20382;-67
2022/06/30 10:45:28;;;;;;;;;;;36.90;80.10;;;;;;5153063;27;19906;-67
2022/06/30 10:47:57;;;;;;;;;;;36.80;79.70;;;;;;5151391;27;19931;-66
2022/06/30 10:50:33;;;;;;;;;;;36.90;80.90;;;;;;5152263;27;19903;-67
2022/06/30 10:53:00;;;;;;;;;;;37.00;81.10;;;;;;5152225;27;19907;-67
2022/06/30 10:55:26;;;;;;;;;;;37.10;80.70;;;;;;5152891;27;19907;-67
2022/06/30 10:58:06;;;;;;;;;;;37.10;80.60;;;;;;5152617;27;20295;-68
2022/06/30 11:00:50;;;;;;;;;;;37.10;80.80;;;;;;5152736;27;19913;-67
2022/06/30 11:05:58;;;;;;;;;;;37.10;82.10;;;;;;4893469;27;7291890;-67
2022/06/30 11:08:36;;;;;;;;;;;37.30;82.10;;;;;;5153962;27;19911;-68
2022/06/30 11:11:20;;;;;;;;;;;37.10;81.70;;;;;;5153652;27;19910;-66
2022/06/30 11:13:46;;;;;;;;;;;37.00;81.70;;;;;;5153463;27;20375;-68
2022/06/30 11:16:19;;;;;;;;;;;37.10;81.10;;;;;;5153619;27;19914;-66
2022/06/30 11:18:46;;;;;;;;;;;37.10;80.70;;;;;;5152893;27;19903;-67
2022/06/30 11:21:12;;;;;;;;;;;37.10;80.30;;;;;;5154232;27;20020;-67
2022/06/30 11:23:41;;;;;;;;;;;37.00;79.80;;;;;;5154208;27;19910;-67
2022/06/30 11:28:52;;;;;;;;;;;36.90;79.80;;;;;;5154363;27;19914;-67
2022/06/30 11:31:37;;;;;;;;;;;36.60;79.50;;;;;;5153899;27;19990;-67
2022/06/30 11:34:04;;;;;;;;;;;36.30;79.30;;;;;;5153762;27;19955;-67
2022/06/30 11:36:31;;;;;;;;;;;36.20;79.20;;;;;;5153947;27;20358;-67
2022/06/30 11:39:02;;;;;;;;;;;36.20;78.50;;;;;;5153907;27;20350;-67
2022/06/30 11:44:14;;;;;;;;;;;36.10;77.40;;;;;;5154324;27;19910;-67
2022/06/30 11:47:03;;;;;;;;;;;36.30;78.40;;;;;;5154322;27;19902;-67
2022/06/30 11:49:40;;;;;;;;;;;36.20;77.70;;;;;;5154066;27;19903;-67
2022/06/30 11:52:10;;;;;;;;;;;35.70;79.00;;;;;;5153642;27;19910;-67
2022/06/30 11:54:36;;;;;;;;;;;35.50;79.60;;;;;;5155858;27;19911;-67
2022/06/30 11:57:02;;;;;;;;;;;35.50;80.30;;;;;;5157175;27;20002;-67
2022/06/30 11:59:28;;;;;;;;;;;35.60;81.20;;;;;;5157122;27;20066;-67
2022/06/30 12:02:06;;;;;;;;;;;35.70;80.90;;;;;;5157228;27;19910;-66
2022/06/30 12:04:33;;;;;;;;;;;35.10;82.00;;;;;;5157188;27;19914;-66
2022/06/30 12:07:00;;;;;;;;;;;34.50;82.50;;;;;;5156958;27;20059;-67
2022/06/30 12:09:26;;;;;;;;;;;34.40;84.80;;;;;;5157014;27;19910;-68
2022/06/30 12:11:53;;;;;;;;;;;34.70;83.40;;;;;;5156875;27;19907;-66
2022/06/30 12:14:19;;;;;;;;;;;34.80;82.30;;;;;;5156716;27;19911;-67
2022/06/30 12:16:45;;;;;;;;;;;35.10;82.20;;;;;;5156851;27;19903;-67
2022/06/30 12:19:15;;;;;;;;;;;34.90;81.90;;;;;;5156917;27;19903;-67
2022/06/30 12:21:41;;;;;;;;;;;35.10;81.50;;;;;;5157381;27;20314;-68
2022/06/30 12:24:07;;;;;;;;;;;35.20;81.50;;;;;;5156941;27;19938;-67
2022/06/30 12:26:33;;;;;;;;;;;35.20;80.20;;;;;;5156826;27;19956;-66
2022/06/30 12:28:59;;;;;;;;;;;35.10;82.30;;;;;;5157018;27;19903;-67
2022/06/30 12:31:29;;;;;;;;;;;35.00;83.40;;;;;;5157422;27;19926;-68
2022/06/30 12:33:55;;;;;;;;;;;35.10;81.60;;;;;;5156674;27;19926;-67
2022/06/30 12:36:31;;;;;;;;;;;35.20;82.00;;;;;;5156809;27;19911;-67
2022/06/30 12:38:57;;;;;;;;;;;34.90;83.80;;;;;;5157247;27;19903;-67
2022/06/30 12:41:23;;;;;;;;;;;35.00;84.90;;;;;;5156733;27;19903;-67
2022/06/30 12:43:50;;;;;;;;;;;35.10;85.70;;;;;;5157085;27;20001;-66
2022/06/30 12:46:17;;;;;;;;;;;35.00;86.20;;;;;;5156763;27;19903;-67
2022/06/30 12:48:42;;;;;;;;;;;35.30;86.30;;;;;;5156726;27;19907;-66
2022/06/30 12:51:09;;;;;;;;;;;35.40;87.00;;;;;;5156210;27;19909;-67
2022/06/30 12:53:35;;;;;;;;;;;35.40;86.20;;;;;;5156201;27;19918;-69
2022/06/30 12:56:05;;;;;;;;;;;35.10;89.30;;;;;;5156354;27;19903;-67
2022/06/30 12:58:48;;;;;;;;;;;35.10;90.20;;;;;;5156024;27;19947;-68
2022/06/30 13:01:22;;;;;;;;;;;34.90;91.10;;;;;;5155869;27;20051;-67
2022/06/30 13:03:58;;;;;;;;;;;34.90;91.50;;;;;;5155844;27;19948;-67
2022/06/30 13:06:25;;;;;;;;;;;34.70;91.30;;;;;;5154508;27;19919;-67
2022/06/30 13:08:51;;;;;;;;;;;34.50;92.70;;;;;;5155798;27;19903;-67
2022/06/30 13:11:18;;;;;;;;;;;34.60;93.60;;;;;;5155728;27;19933;-67
2022/06/30 13:13:45;;;;;;;;;;;34.40;94.90;;;;;;5155780;27;19918;-67
2022/06/30 13:16:12;;;;;;;;;;;34.50;95.00;;;;;;5154409;27;19903;-67
2022/06/30 13:18:38;;;;;;;;;;;34.50;97.00;;;;;;5156049;27;20347;-68
2022/06/30 13:21:04;;;;;;;;;;;34.50;97.30;;;;;;5156030;27;19907;-67
2022/06/30 13:23:30;;;;;;;;;;;34.50;97.70;;;;;;5155968;27;19946;-68
2022/06/30 13:25:56;;;;;;;;;;;34.30;98.60;;;;;;5155952;27;19903;-68
2022/06/30 13:28:21;;;;;;;;;;;34.20;99.20;;;;;;5155894;27;19947;-67
2022/06/30 13:30:47;;;;;;;;;;;34.20;99.70;;;;;;5156132;27;19903;-68
2022/06/30 13:33:13;;;;;;;;;;;34.10;99.90;;;;;;5155835;27;19911;-68
2022/06/30 13:35:39;;;;;;;;;;;34.20;99.90;;;;;;5156073;27;19903;-67
2022/06/30 13:38:04;;;;;;;;;;;34.20;99.90;;;;;;5155786;27;20432;-67
2022/06/30 13:40:30;;;;;;;;;;;33.90;99.90;;;;;;5154255;27;19903;-68
2022/06/30 13:42:56;;;;;;;;;;;33.90;99.90;;;;;;5155560;27;19911;-68
2022/06/30 13:45:22;;;;;;;;;;;33.90;99.90;;;;;;5156099;27;19964;-67
2022/06/30 13:47:48;;;;;;;;;;;34.00;99.90;;;;;;5155520;27;19939;-67
2022/06/30 13:50:14;;;;;;;;;;;34.00;99.90;;;;;;5155392;27;20357;-68
2022/06/30 13:52:39;;;;;;;;;;;34.20;99.90;;;;;;5155013;27;19919;-68
2022/06/30 13:55:05;;;;;;;;;;;34.20;99.90;;;;;;5154961;27;20354;-69
2022/06/30 13:57:31;;;;;;;;;;;33.90;99.90;;;;;;5155240;27;19903;-68
2022/06/30 13:59:57;;;;;;;;;;;33.90;99.90;;;;;;5154814;27;20303;-67
2022/06/30 14:02:23;;;;;;;;;;;34.10;99.90;;;;;;5154616;27;19914;-67
2022/06/30 14:04:48;;;;;;;;;;;34.10;99.90;;;;;;5155141;27;20231;-68
2022/06/30 14:07:14;;;;;;;;;;;34.10;99.90;;;;;;5154602;27;19915;-67
2022/06/30 14:09:41;;;;;;;;;;;34.20;99.90;;;;;;5155240;27;20267;-68
2022/06/30 14:12:07;;;;;;;;;;;34.10;99.90;;;;;;5154677;27;19944;-67
2022/06/30 14:14:33;;;;;;;;;;;33.90;99.90;;;;;;5155005;27;20228;-68
2022/06/30 14:16:59;;;;;;;;;;;33.90;99.90;;;;;;5154497;27;19925;-68
2022/06/30 14:19:25;;;;;;;;;;;33.90;99.90;;;;;;5154700;27;19967;-67
2022/06/30 14:21:50;;;;;;;;;;;33.90;99.90;;;;;;5154560;27;19903;-68
2022/06/30 14:24:16;;;;;;;;;;;33.90;99.90;;;;;;5153146;27;20335;-67
2022/06/30 14:26:42;;;;;;;;;;;33.80;99.90;;;;;;5154284;27;19914;-68
2022/06/30 14:29:09;;;;;;;;;;;33.80;99.90;;;;;;5154335;27;19903;-67
2022/06/30 14:31:35;;;;;;;;;;;33.80;99.90;;;;;;5153949;27;20002;-67
2022/06/30 14:34:01;;;;;;;;;;;33.80;99.90;;;;;;5152413;27;20001;-68